Time;durP1;ratioP1;P1;durP2;ratioP2;P2;SDS_P1;SDS_P2;PMS_P1;PMS_P2;Temp;Humidity;BMP_temperature;BMP_pressure;BME280_temperature;BME280_humidity;BME280_pressure;Samples;Min_cycle;Max_cycle;Signal;HPM_P1;HPM_P2
2021/11/06 00:01:41;;;;;;;22.27;11.52;;;;;;;8.01;68.28;101133.47;10543597;28;20496;-63
2021/11/06 00:06:44;;;;;;;18.70;10.85;;;;;;;8.01;68.06;101130.84;10552501;28;20039;-63
2021/11/06 00:11:46;;;;;;;19.05;11.25;;;;;;;8.04;68.05;101142.03;10551398;28;20039;-64
2021/11/06 00:16:48;;;;;;;15.40;10.90;;;;;;;7.92;67.96;101139.78;10547047;28;20062;-63
2021/11/06 00:21:49;;;;;;;24.42;12.82;;;;;;;7.80;68.44;101150.56;10520176;28;20044;-63
2021/11/06 00:26:51;;;;;;;30.80;15.68;;;;;;;7.78;68.40;101141.09;10552813;28;20049;-63
2021/11/06 00:31:53;;;;;;;22.58;11.13;;;;;;;7.51;68.48;101150.53;10529826;28;20050;-64
2021/11/06 00:36:55;;;;;;;18.02;11.63;;;;;;;7.14;68.65;101147.25;10512989;28;20095;-63
2021/11/06 00:41:56;;;;;;;24.60;13.93;;;;;;;6.93;68.79;101145.19;10513351;28;20058;-63
2021/11/06 00:46:58;;;;;;;32.38;15.13;;;;;;;6.72;69.13;101136.19;10534031;28;20049;-63
2021/11/06 00:52:00;;;;;;;20.60;11.88;;;;;;;6.62;69.31;101144.25;10536082;28;20163;-63
2021/11/06 00:57:03;;;;;;;27.17;15.82;;;;;;;6.69;69.50;101140.63;10512616;28;20055;-64
2021/11/06 01:02:05;;;;;;;33.90;17.40;;;;;;;6.90;69.77;101143.50;10527973;28;20514;-63
2021/11/06 01:07:07;;;;;;;33.95;16.52;;;;;;;7.03;69.74;101136.25;10528435;28;20503;-63
2021/11/06 01:12:09;;;;;;;27.95;15.45;;;;;;;7.16;69.46;101129.84;10550357;28;20056;-63
2021/11/06 01:17:11;;;;;;;19.75;14.32;;;;;;;7.19;69.62;101129.75;10550776;28;20052;-63
2021/11/06 01:22:12;;;;;;;18.23;12.10;;;;;;;7.25;69.70;101140.00;10530268;28;20587;-63
2021/11/06 01:27:14;;;;;;;19.98;12.30;;;;;;;7.36;69.63;101145.78;10532671;28;20072;-63
2021/11/06 01:32:16;;;;;;;20.20;12.40;;;;;;;7.33;69.53;101142.38;10519520;28;20492;-63
2021/11/06 01:37:17;;;;;;;23.42;14.13;;;;;;;7.12;69.62;101146.44;10545948;28;20396;-63
2021/11/06 01:42:20;;;;;;;24.77;13.70;;;;;;;6.92;69.65;101151.28;10514034;28;20056;-63
2021/11/06 01:47:21;;;;;;;17.52;12.88;;;;;;;6.73;69.83;101140.50;10547243;28;20055;-63
2021/11/06 01:52:23;;;;;;;30.20;15.75;;;;;;;6.65;69.84;101149.38;10548357;28;20047;-63
2021/11/06 01:57:27;;;;;;;28.95;16.38;;;;;;;6.53;69.66;101147.06;10515368;28;20226;-63
2021/11/06 02:02:30;;;;;;;25.80;14.27;;;;;;;6.38;69.93;101150.88;10521472;28;20052;-63
2021/11/06 02:07:32;;;;;;;22.17;14.07;;;;;;;6.27;70.29;101139.88;10542220;28;20075;-63
2021/11/06 02:12:33;;;;;;;19.88;13.25;;;;;;;6.20;70.20;101138.28;10535809;28;20050;-63
2021/11/06 02:17:35;;;;;;;23.08;15.00;;;;;;;6.10;70.46;101140.22;10548489;28;20059;-63
2021/11/06 02:22:37;;;;;;;36.42;19.23;;;;;;;5.96;70.33;101139.66;10514183;28;20645;-63
2021/11/06 02:27:40;;;;;;;29.95;16.25;;;;;;;5.88;70.49;101138.97;10542805;28;20281;-63
2021/11/06 02:32:43;;;;;;;31.00;16.98;;;;;;;5.81;70.57;101133.97;10515787;28;20499;-63
2021/11/06 02:37:45;;;;;;;31.45;16.73;;;;;;;5.69;70.74;101135.09;10508984;28;20052;-63
2021/11/06 02:42:46;;;;;;;24.98;14.02;;;;;;;5.62;70.72;101149.06;10542891;28;20179;-63
2021/11/06 02:47:49;;;;;;;31.45;16.27;;;;;;;5.48;70.77;101151.06;10514905;28;20389;-63
2021/11/06 02:52:50;;;;;;;35.53;17.85;;;;;;;5.46;71.16;101158.03;10523126;28;20067;-63
2021/11/06 02:57:52;;;;;;;28.60;16.48;;;;;;;5.37;71.16;101156.47;10509351;28;20665;-63
2021/11/06 03:02:55;;;;;;;43.63;17.70;;;;;;;5.32;71.34;101157.44;10512969;28;20048;-63
2021/11/06 03:07:58;;;;;;;452.63;26.55;;;;;;;5.28;70.99;101158.38;10516643;28;20472;-63
2021/11/06 03:13:00;;;;;;;1107.43;41.92;;;;;;;5.19;70.75;101150.75;10548986;28;20409;-63
2021/11/06 03:18:02;;;;;;;521.20;24.08;;;;;;;5.14;70.79;101160.38;10560016;28;20048;-63
2021/11/06 03:23:04;;;;;;;70.40;18.08;;;;;;;5.17;70.33;101155.97;10563841;28;20054;-63
2021/11/06 03:28:06;;;;;;;463.73;25.33;;;;;;;5.12;70.44;101163.00;10564004;28;20356;-63
2021/11/06 03:33:08;;;;;;;301.23;20.83;;;;;;;5.02;70.81;101158.00;10538857;28;20047;-63
2021/11/06 03:38:10;;;;;;;489.70;21.17;;;;;;;4.98;71.07;101156.34;10561937;28;20050;-63
2021/11/06 03:43:11;;;;;;;362.10;16.27;;;;;;;4.96;70.77;101160.72;10558682;28;20048;-64
2021/11/06 03:48:13;;;;;;;332.27;16.17;;;;;;;5.01;70.84;101164.91;10541191;28;20417;-63
2021/11/06 03:53:15;;;;;;;32.58;15.73;;;;;;;4.91;70.79;101172.88;10538995;28;20127;-63
2021/11/06 03:58:17;;;;;;;30.02;15.30;;;;;;;4.80;71.11;101164.44;10544189;28;20557;-63
2021/11/06 04:03:19;;;;;;;51.92;18.42;;;;;;;4.85;70.82;101170.38;10547758;28;20048;-64
2021/11/06 04:08:21;;;;;;;36.83;14.40;;;;;;;4.93;70.89;101171.97;10535878;28;20055;-63
2021/11/06 04:13:23;;;;;;;923.55;32.65;;;;;;;4.90;70.64;101171.19;10531269;28;20094;-63
2021/11/06 04:18:24;;;;;;;243.77;17.33;;;;;;;4.81;71.06;101166.13;10537354;28;20050;-63
2021/11/06 04:23:26;;;;;;;668.05;30.38;;;;;;;4.72;71.08;101166.31;10532249;27;20777;-63
2021/11/06 04:28:30;;;;;;;480.52;20.23;;;;;;;4.69;70.99;101170.66;10529980;28;20054;-63
2021/11/06 04:33:31;;;;;;;618.95;16.58;;;;;;;4.42;70.71;101173.66;10513720;28;20048;-63
2021/11/06 04:38:33;;;;;;;493.75;20.02;;;;;;;4.25;71.21;101182.56;10520184;28;20057;-63
2021/11/06 04:43:37;;;;;;;590.10;24.58;;;;;;;4.31;70.93;101188.50;10513109;28;20079;-63
2021/11/06 04:48:38;;;;;;;139.40;17.30;;;;;;;4.28;70.81;101191.16;10553520;28;20047;-63
2021/11/06 04:53:40;;;;;;;641.35;25.08;;;;;;;4.35;71.02;101197.09;10512820;28;20044;-63
2021/11/06 04:58:42;;;;;;;650.78;23.02;;;;;;;4.32;71.05;101197.13;10512193;28;20054;-63
2021/11/06 05:03:44;;;;;;;1007.25;31.15;;;;;;;4.38;71.39;101203.09;10546109;28;20143;-63
2021/11/06 05:08:45;;;;;;;832.00;28.30;;;;;;;4.37;71.43;101196.19;10512394;28;20081;-63
2021/11/06 05:13:47;;;;;;;407.15;17.77;;;;;;;4.41;71.41;101187.47;10512598;28;20093;-63
2021/11/06 05:18:49;;;;;;;575.30;21.75;;;;;;;4.45;71.40;101189.19;10552218;28;20051;-63
2021/11/06 05:23:51;;;;;;;530.30;21.88;;;;;;;4.45;71.43;101196.09;10517636;28;20130;-63
2021/11/06 05:28:53;;;;;;;601.38;23.83;;;;;;;4.48;71.30;101196.88;10512416;28;20362;-63
2021/11/06 05:33:54;;;;;;;405.42;17.05;;;;;;;4.53;70.95;101183.88;10537048;28;20050;-63
2021/11/06 05:38:56;;;;;;;96.95;13.38;;;;;;;4.38;71.40;101200.50;10522720;28;20399;-63
2021/11/06 05:43:58;;;;;;;206.20;18.98;;;;;;;4.41;71.47;101199.59;10509692;28;20135;-64
2021/11/06 05:49:00;;;;;;;504.48;19.73;;;;;;;4.43;71.23;101201.25;10518041;28;20127;-64
2021/11/06 05:54:11;;;;;;;208.25;16.83;;;;;;;4.35;71.46;101212.63;10512256;28;20548;-63
2021/11/06 05:59:12;;;;;;;350.27;19.63;;;;;;;4.36;71.35;101217.78;10510594;28;20050;-63
2021/11/06 06:04:14;;;;;;;514.28;27.15;;;;;;;4.29;71.58;101213.56;10548106;28;20513;-63
2021/11/06 06:09:16;;;;;;;372.65;18.98;;;;;;;4.42;71.41;101215.09;10517355;28;20139;-63
2021/11/06 06:14:17;;;;;;;889.53;33.55;;;;;;;4.43;70.93;101229.75;10542722;28;20500;-64
2021/11/06 06:19:19;;;;;;;264.85;18.40;;;;;;;4.32;71.34;101220.44;10510262;28;20048;-64
2021/11/06 06:24:21;;;;;;;230.32;19.58;;;;;;;4.42;71.33;101238.41;10549641;28;20044;-64
2021/11/06 06:29:22;;;;;;;135.00;16.63;;;;;;;4.45;71.38;101242.72;10539426;28;20135;-64
2021/11/06 06:34:24;;;;;;;90.65;21.10;;;;;;;4.61;71.59;101247.66;10518125;28;20052;-64
2021/11/06 06:39:26;;;;;;;108.93;24.67;;;;;;;4.82;71.64;101246.44;10549607;28;20146;-64
2021/11/06 06:44:28;;;;;;;136.85;27.27;;;;;;;5.13;71.21;101246.81;10516604;28;20047;-64
2021/11/06 06:49:30;;;;;;;62.78;20.33;;;;;;;5.33;70.93;101242.19;10549219;28;20411;-63
2021/11/06 06:54:33;;;;;;;65.20;20.90;;;;;;;5.42;70.67;101244.59;10521497;28;20054;-64
2021/11/06 06:59:35;;;;;;;35.20;16.42;;;;;;;5.47;70.95;101253.16;10528846;28;20044;-64
2021/11/06 07:04:38;;;;;;;30.65;16.33;;;;;;;5.61;71.08;101260.69;10522279;28;20086;-64
2021/11/06 07:09:43;;;;;;;46.47;18.83;;;;;;;5.63;71.18;101262.38;10521378;28;20052;-64
2021/11/06 07:14:49;;;;;;;35.10;17.90;;;;;;;5.68;71.25;101265.72;10521127;28;20056;-64
2021/11/06 07:19:50;;;;;;;35.85;18.05;;;;;;;5.78;71.15;101261.25;10523263;28;20054;-64
2021/11/06 07:24:52;;;;;;;37.78;18.15;;;;;;;5.76;71.15;101271.63;10526545;28;20050;-64
2021/11/06 07:29:54;;;;;;;39.58;19.15;;;;;;;5.88;70.97;101273.97;10544430;28;20078;-64
2021/11/06 07:34:55;;;;;;;30.80;16.77;;;;;;;5.97;70.78;101272.97;10525512;28;20051;-64
2021/11/06 07:39:57;;;;;;;36.95;18.52;;;;;;;5.98;70.73;101278.13;10532743;28;20048;-64
2021/11/06 07:44:59;;;;;;;33.42;17.95;;;;;;;5.91;70.80;101271.34;10536354;28;20059;-64
2021/11/06 07:50:02;;;;;;;32.83;17.52;;;;;;;6.03;70.73;101268.50;10533185;28;20058;-64
2021/11/06 07:55:05;;;;;;;33.53;16.95;;;;;;;6.23;70.26;101287.13;10529549;28;20055;-64
2021/11/06 08:00:11;;;;;;;27.48;16.02;;;;;;;6.30;69.99;101285.31;10522010;28;20048;-65
2021/11/06 08:05:15;;;;;;;28.70;17.58;;;;;;;6.58;69.80;101283.81;10536216;28;20047;-64
2021/11/06 08:10:17;;;;;;;24.98;15.15;;;;;;;6.81;69.02;101286.78;10527974;28;20050;-64
2021/11/06 08:15:18;;;;;;;21.33;14.20;;;;;;;6.97;68.61;101282.94;10522587;28;20154;-64
2021/11/06 08:20:22;;;;;;;24.80;14.15;;;;;;;7.03;68.23;101281.91;10517626;28;20051;-64
2021/11/06 08:25:24;;;;;;;22.45;14.50;;;;;;;7.09;68.19;101277.44;10528088;28;20047;-64
2021/11/06 08:30:30;;;;;;;23.48;14.90;;;;;;;7.24;67.72;101283.16;10546793;28;20443;-65
2021/11/06 08:35:32;;;;;;;22.02;14.73;;;;;;;7.72;67.02;101272.31;10528024;28;20091;-65
2021/11/06 08:40:34;;;;;;;20.38;13.90;;;;;;;7.91;66.34;101264.88;10537736;28;20044;-65
2021/11/06 08:45:37;;;;;;;20.25;13.63;;;;;;;7.92;66.19;101250.94;10528385;28;20483;-65
2021/11/06 08:50:39;;;;;;;19.98;12.63;;;;;;;7.75;66.30;101261.81;10527791;28;20552;-65
2021/11/06 08:55:41;;;;;;;20.23;14.23;;;;;;;7.48;66.46;101267.78;10515129;28;20040;-65
2021/11/06 09:00:45;;;;;;;19.20;13.25;;;;;;;7.49;66.63;101268.63;10516803;28;20214;-64
2021/11/06 09:05:51;;;;;;;20.52;13.55;;;;;;;7.64;66.47;101269.06;10533671;28;20048;-64
2021/11/06 09:10:59;;;;;;;19.10;12.35;;;;;;;7.62;66.27;101259.59;10513510;28;20381;-70
2021/11/06 09:16:06;;;;;;;20.17;13.55;;;;;;;7.63;66.26;101256.94;10531689;28;20136;-70
2021/11/06 09:21:14;;;;;;;16.98;12.85;;;;;;;7.78;66.03;101255.66;10525950;28;20052;-70
2021/11/06 09:26:20;;;;;;;17.15;12.48;;;;;;;7.85;65.93;101254.63;10503303;28;20159;-71
2021/11/06 09:31:21;;;;;;;22.50;17.13;;;;;;;7.91;65.65;101263.13;10381788;28;20056;-71
2021/11/06 09:36:23;;;;;;;23.42;11.15;;;;;;;8.00;65.37;101260.25;10384687;28;20045;-71
2021/11/06 09:41:25;;;;;;;19.90;11.57;;;;;;;8.22;65.09;101257.06;10382660;28;20059;-71
2021/11/06 09:46:27;;;;;;;16.17;10.43;;;;;;;8.35;64.61;101256.66;10381539;28;20525;-71
2021/11/06 09:51:30;;;;;;;13.95;10.52;;;;;;;8.43;64.34;101256.44;10378473;28;20876;-71
2021/11/06 09:56:31;;;;;;;16.15;10.50;;;;;;;8.41;64.36;101258.22;10384185;28;20053;-71
2021/11/06 10:01:33;;;;;;;15.43;10.07;;;;;;;8.39;64.19;101247.00;10369070;28;20358;-71
2021/11/06 10:06:45;;;;;;;14.93;9.27;;;;;;;8.45;63.80;101250.28;10380398;28;20232;-71
2021/11/06 10:11:50;;;;;;;12.50;8.23;;;;;;;8.52;62.90;101240.53;10381872;28;20060;-70
2021/11/06 10:16:58;;;;;;;14.70;8.40;;;;;;;8.66;62.43;101233.97;10381695;28;20049;-71
2021/11/06 10:22:25;;;;;;;14.18;7.72;;;;;;;8.90;62.47;101237.56;10381428;28;20045;-71
2021/11/06 10:27:31;;;;;;;15.50;7.03;;;;;;;9.15;62.05;101227.16;10380949;28;20293;-70
2021/11/06 10:32:34;;;;;;;12.35;6.85;;;;;;;9.37;61.66;101221.19;10381077;28;20048;-70
2021/11/06 10:37:37;;;;;;;13.93;6.38;;;;;;;9.46;61.10;101215.63;10382884;28;20052;-71
2021/11/06 10:42:53;;;;;;;12.32;5.90;;;;;;;9.55;60.40;101206.63;10382520;28;20486;-70
2021/11/06 10:48:06;;;;;;;10.43;5.70;;;;;;;9.55;59.29;101191.81;10383150;28;20053;-71
2021/11/06 10:53:10;;;;;;;9.73;4.78;;;;;;;9.67;60.64;101181.88;10381824;28;20568;-70
2021/11/06 10:58:27;;;;;;;9.35;5.05;;;;;;;9.72;59.25;101170.34;10371718;28;20053;-70
2021/11/06 11:03:49;;;;;;;12.38;4.80;;;;;;;9.62;58.49;101167.19;10376406;28;20060;-70
2021/11/06 11:08:53;;;;;;;9.60;4.82;;;;;;;9.68;59.01;101155.69;10379627;28;20139;-70
2021/11/06 11:14:02;;;;;;;11.10;4.55;;;;;;;9.85;59.04;101148.06;10379576;28;20072;-70
2021/11/06 11:19:11;;;;;;;8.32;4.40;;;;;;;9.98;58.30;101135.38;10379455;28;20049;-71
2021/11/06 11:24:18;;;;;;;11.60;4.10;;;;;;;9.98;58.46;101130.16;10379707;28;20075;-70
2021/11/06 11:29:34;;;;;;;8.23;4.28;;;;;;;10.09;57.99;101126.25;10380677;28;20091;-70
2021/11/06 11:34:35;;;;;;;9.00;3.60;;;;;;;10.21;57.48;101119.69;10382822;28;20057;-70
2021/11/06 11:39:37;;;;;;;7.72;3.50;;;;;;;10.39;57.19;101113.72;10384594;28;20045;-70
2021/11/06 11:45:17;;;;;;;6.70;3.50;;;;;;;10.49;55.83;101101.97;10387618;28;20071;-70
2021/11/06 11:50:26;;;;;;;7.15;3.20;;;;;;;10.52;56.31;101102.69;10388058;28;20060;-70
2021/11/06 11:55:36;;;;;;;6.63;2.95;;;;;;;10.45;55.14;101106.47;10385981;28;20046;-69
2021/11/06 12:00:47;;;;;;;7.55;3.25;;;;;;;10.28;56.66;101090.59;10388317;28;20482;-69
2021/11/06 12:05:49;;;;;;;6.63;2.60;;;;;;;10.31;55.94;101089.63;10387045;28;20045;-70
2021/11/06 12:11:00;;;;;;;3.60;1.80;;;;;;;10.51;54.25;101081.81;10386461;28;20061;-70
2021/11/06 12:16:14;;;;;;;7.95;1.90;;;;;;;10.47;54.13;101081.13;10386439;28;20305;-70
2021/11/06 12:21:18;;;;;;;14.38;2.22;;;;;;;10.54;53.43;101067.78;10384696;28;20748;-70
2021/11/06 12:26:21;;;;;;;4.05;1.70;;;;;;;10.61;52.16;101061.34;10381826;28;20050;-69
2021/11/06 12:31:27;;;;;;;3.50;1.60;;;;;;;10.56;51.32;101051.13;10385513;28;20049;-70
2021/11/06 12:36:30;;;;;;;4.57;1.50;;;;;;;10.79;50.68;101045.72;10381103;28;20164;-69
2021/11/06 12:41:36;;;;;;;6.35;1.75;;;;;;;10.90;49.87;101034.81;10382873;28;20252;-69
2021/11/06 12:46:39;;;;;;;4.43;1.80;;;;;;;11.02;49.60;101032.50;10380925;28;20055;-69
2021/11/06 12:51:42;;;;;;;2.70;1.50;;;;;;;11.09;49.95;101018.25;10385835;28;20055;-70
2021/11/06 12:56:54;;;;;;;3.60;1.60;;;;;;;11.02;49.33;101021.19;10385770;28;20048;-69
2021/11/06 13:01:59;;;;;;;6.45;2.00;;;;;;;11.03;49.46;101013.25;10384615;28;20272;-69
2021/11/06 13:07:02;;;;;;;7.72;1.60;;;;;;;11.11;48.88;101008.56;10384325;28;20103;-70
2021/11/06 13:12:12;;;;;;;5.00;1.60;;;;;;;10.79;46.60;100997.78;10382673;28;20137;-70
2021/11/06 13:17:36;;;;;;;5.97;1.55;;;;;;;10.90;47.76;100988.56;10383887;28;20053;-69
2021/11/06 13:22:44;;;;;;;6.82;1.80;;;;;;;10.97;47.51;100984.72;10382782;28;20060;-70
2021/11/06 13:27:48;;;;;;;6.18;1.70;;;;;;;11.05;47.18;100974.81;10380516;28;20497;-70
2021/11/06 13:33:07;;;;;;;5.30;1.60;;;;;;;10.98;46.38;100952.41;10380312;28;20085;-70
2021/11/06 13:38:36;;;;;;;4.60;1.40;;;;;;;10.88;45.74;100948.53;10380199;28;20516;-70
2021/11/06 13:43:47;;;;;;;3.05;1.40;;;;;;;10.94;46.34;100939.53;10383000;28;20049;-70
2021/11/06 13:48:56;;;;;;;4.43;2.00;;;;;;;11.07;46.37;100940.72;10377047;28;20096;-69
2021/11/06 13:54:07;;;;;;;4.90;1.70;;;;;;;10.90;45.40;100937.97;10381712;28;20498;-69
2021/11/06 13:59:09;;;;;;;4.70;1.60;;;;;;;10.96;46.60;100932.47;10382336;28;20055;-69
2021/11/06 14:04:11;;;;;;;3.97;1.40;;;;;;;10.88;46.82;100939.81;10374834;28;20045;-69
2021/11/06 14:09:15;;;;;;;7.22;1.50;;;;;;;10.97;46.32;100932.38;10372730;28;20054;-71
2021/11/06 14:14:22;;;;;;;4.43;1.90;;;;;;;10.80;45.42;100932.31;10381372;28;20060;-69
2021/11/06 14:19:25;;;;;;;4.13;1.67;;;;;;;10.77;45.21;100929.81;10379596;28;20053;-69
2021/11/06 14:24:34;;;;;;;2.97;1.40;;;;;;;10.70;45.48;100930.16;10379833;28;20140;-68
2021/11/06 14:29:37;;;;;;;3.00;1.40;;;;;;;10.73;45.87;100927.41;10372038;28;20733;-68
2021/11/06 14:34:39;;;;;;;7.30;1.60;;;;;;;10.74;46.21;100913.41;10381685;28;20444;-68
2021/11/06 14:40:06;;;;;;;4.35;1.60;;;;;;;10.62;45.33;100912.22;10381646;28;20055;-69
2021/11/06 14:45:15;;;;;;;6.80;1.77;;;;;;;10.51;47.05;100903.97;10376998;28;20056;-67
2021/11/06 14:50:23;;;;;;;4.88;1.67;;;;;;;10.42;47.86;100893.91;10380316;28;20045;-68
2021/11/06 14:55:24;;;;;;;4.03;1.60;;;;;;;10.28;47.48;100885.81;10369732;28;20445;-68
2021/11/06 15:00:37;;;;;;;8.13;1.80;;;;;;;10.34;47.50;100882.94;10380723;28;20056;-68
2021/11/06 15:05:41;;;;;;;3.85;1.70;;;;;;;10.31;47.80;100875.22;10367104;28;20498;-68
2021/11/06 15:10:46;;;;;;;4.63;1.88;;;;;;;10.15;48.46;100858.53;10385368;28;20482;-68
2021/11/06 15:15:51;;;;;;;5.80;2.40;;;;;;;10.12;49.06;100854.25;10379098;28;20428;-68
2021/11/06 15:20:53;;;;;;;4.50;1.98;;;;;;;9.97;49.12;100848.84;10381980;28;20060;-69
2021/11/06 15:25:55;;;;;;;6.15;1.90;;;;;;;9.85;49.20;100852.81;10388404;28;20132;-69
2021/11/06 15:30:57;;;;;;;7.15;1.90;;;;;;;9.70;49.39;100850.00;10383974;28;20046;-68
2021/11/06 15:35:58;;;;;;;3.67;1.80;;;;;;;9.49;49.90;100852.56;10388485;28;20456;-68
2021/11/06 15:41:00;;;;;;;3.60;1.80;;;;;;;9.33;50.46;100851.47;10385787;28;20140;-69
2021/11/06 15:46:02;;;;;;;4.85;1.90;;;;;;;9.14;51.13;100847.88;10385634;28;20494;-68
2021/11/06 15:51:05;;;;;;;4.80;2.15;;;;;;;9.00;51.54;100850.19;10387063;28;20049;-68
2021/11/06 15:56:07;;;;;;;4.55;1.95;;;;;;;8.81;52.03;100844.00;10388788;28;20058;-68
2021/11/06 16:01:10;;;;;;;6.78;2.05;;;;;;;8.68;52.58;100855.78;10386606;28;20509;-68
2021/11/06 16:06:12;;;;;;;5.45;1.90;;;;;;;8.56;53.21;100845.81;10387894;28;20049;-68
2021/11/06 16:11:16;;;;;;;3.63;1.77;;;;;;;8.44;53.61;100841.06;10380849;28;20068;-68
2021/11/06 16:16:21;;;;;;;3.40;1.88;;;;;;;8.32;54.28;100846.72;10381870;28;20050;-68
2021/11/06 16:21:24;;;;;;;5.60;2.55;;;;;;;8.28;54.42;100845.13;10384344;28;20050;-68
2021/11/06 16:26:26;;;;;;;4.18;2.03;;;;;;;8.31;54.59;100853.66;10375178;28;20061;-68
2021/11/06 16:31:29;;;;;;;9.50;2.20;;;;;;;8.36;54.68;100856.13;10381937;28;20564;-68
2021/11/06 16:36:31;;;;;;;3.78;2.05;;;;;;;8.49;54.55;100847.78;10384918;28;20081;-68
2021/11/06 16:41:33;;;;;;;6.53;2.50;;;;;;;8.61;55.32;100859.50;10387255;28;20055;-63
2021/11/06 16:46:35;;;;;;;6.68;2.63;;;;;;;8.66;55.06;100855.84;10386696;28;20516;-62
2021/11/06 16:51:37;;;;;;;7.55;2.20;;;;;;;8.72;55.29;100866.06;10386942;28;20053;-62
2021/11/06 16:56:39;;;;;;;7.10;2.30;;;;;;;8.76;55.45;100864.16;10385492;28;20815;-62
2021/11/06 17:01:40;;;;;;;7.13;2.20;;;;;;;8.75;55.91;100860.69;10387140;28;20050;-62
2021/11/06 17:06:45;;;;;;;7.32;2.70;;;;;;;8.67;56.09;100854.94;10401431;28;20441;-63
2021/11/06 17:11:47;;;;;;;6.05;2.88;;;;;;;8.62;56.91;100851.66;10386846;28;20056;-61
2021/11/06 17:16:48;;;;;;;4.93;3.00;;;;;;;8.56;56.90;100849.28;10385767;28;20421;-62
2021/11/06 17:21:50;;;;;;;8.98;3.20;;;;;;;8.44;57.34;100830.63;10386782;28;20049;-61
2021/11/06 17:26:52;;;;;;;7.35;3.28;;;;;;;8.23;57.63;100836.59;10385031;28;20513;-62
2021/11/06 17:31:54;;;;;;;6.60;3.00;;;;;;;8.24;57.33;100827.91;10382784;28;20064;-62
2021/11/06 17:36:55;;;;;;;7.07;3.70;;;;;;;8.20;56.97;100828.91;10377307;28;20049;-62
2021/11/06 17:41:58;;;;;;;7.38;3.70;;;;;;;8.21;56.68;100833.19;10378254;28;20488;-63
2021/11/06 17:47:00;;;;;;;9.43;4.68;;;;;;;8.28;56.56;100834.69;10379262;28;20055;-62
2021/11/06 17:57:08;;;;;;;5.40;3.05;;;;;;;8.08;56.75;100814.50;10382586;28;20089;-63
2021/11/06 18:02:11;;;;;;;8.50;2.95;;;;;;;8.16;56.94;100822.94;10383151;28;20042;-63
2021/11/06 18:07:13;;;;;;;5.82;2.80;;;;;;;8.25;56.81;100824.38;10380272;28;20057;-62
2021/11/06 18:12:15;;;;;;;8.35;3.20;;;;;;;8.17;57.09;100811.63;10376711;28;20056;-63
2021/11/06 18:17:16;;;;;;;8.60;2.90;;;;;;;8.20;57.20;100803.69;10381131;28;20053;-63
2021/11/06 18:22:19;;;;;;;7.03;3.10;;;;;;;8.27;56.87;100794.75;10382686;28;20057;-62
2021/11/06 18:27:21;;;;;;;9.02;5.03;;;;;;;8.34;56.99;100782.34;10380351;28;20410;-63
2021/11/06 18:32:23;;;;;;;10.60;3.50;;;;;;;8.36;57.21;100763.16;10377287;28;20512;-63
2021/11/06 18:37:25;;;;;;;8.80;3.10;;;;;;;8.26;57.36;100755.72;10379919;28;20113;-63
2021/11/06 18:42:28;;;;;;;6.70;3.65;;;;;;;8.26;57.16;100750.50;10379140;28;20085;-63
2021/11/06 18:47:31;;;;;;;6.68;3.35;;;;;;;8.30;57.24;100732.09;10389898;28;20052;-62
2021/11/06 18:52:33;;;;;;;8.05;3.78;;;;;;;8.40;57.04;100730.00;10390632;28;20048;-64
2021/11/06 18:57:35;;;;;;;8.15;4.38;;;;;;;8.36;57.09;100713.63;10381361;28;20053;-63
2021/11/06 19:02:38;;;;;;;9.23;5.43;;;;;;;8.34;57.12;100711.97;10389698;28;20429;-63
2021/11/06 19:07:40;;;;;;;9.07;3.90;;;;;;;8.35;57.29;100698.03;10390288;28;20412;-63
2021/11/06 19:12:42;;;;;;;7.15;3.80;;;;;;;8.38;57.33;100684.88;10388423;28;20512;-63
2021/11/06 19:17:44;;;;;;;6.05;3.38;;;;;;;8.33;57.19;100690.28;10390716;28;20059;-63
2021/11/06 19:22:45;;;;;;;5.38;3.53;;;;;;;8.26;57.15;100691.41;10388481;28;20236;-63
2021/11/06 19:27:55;;;;;;;8.00;3.70;;;;;;;8.25;57.27;100701.88;10390116;28;20128;-63
2021/11/06 19:32:57;;;;;;;6.22;3.58;;;;;;;8.19;57.34;100705.59;10388796;28;20569;-63
2021/11/06 19:38:00;;;;;;;7.20;3.50;;;;;;;8.19;57.33;100715.16;10389969;28;20050;-63
2021/11/06 19:43:04;;;;;;;8.50;3.55;;;;;;;8.16;57.02;100721.31;10390260;28;20288;-63
2021/11/06 19:48:08;;;;;;;5.93;3.58;;;;;;;8.07;57.54;100710.38;10385537;28;20414;-63
2021/11/06 19:53:11;;;;;;;6.93;3.30;;;;;;;8.04;57.63;100712.19;10384995;28;20048;-63
2021/11/06 19:58:12;;;;;;;7.65;3.53;;;;;;;8.11;57.59;100715.44;10385417;28;20322;-63
2021/11/06 20:03:14;;;;;;;8.00;3.53;;;;;;;8.08;57.80;100717.28;10388522;28;20055;-63
2021/11/06 20:08:16;;;;;;;8.55;3.40;;;;;;;8.07;57.53;100718.19;10386231;28;20049;-63
2021/11/06 20:13:18;;;;;;;8.45;3.72;;;;;;;7.97;57.76;100720.28;10388163;28;20067;-63
2021/11/06 20:18:19;;;;;;;7.68;4.20;;;;;;;8.06;57.64;100716.50;10389707;28;20502;-63
2021/11/06 20:23:21;;;;;;;6.65;3.50;;;;;;;8.04;57.86;100706.97;10389107;28;20527;-63
2021/11/06 20:28:23;;;;;;;7.85;3.50;;;;;;;8.00;57.57;100712.34;10389444;28;20053;-63
2021/11/06 20:33:24;;;;;;;6.03;3.42;;;;;;;8.00;57.52;100722.75;10388574;28;20055;-63
2021/11/06 20:38:30;;;;;;;7.25;3.50;;;;;;;7.93;57.44;100734.31;10385973;28;20053;-63
2021/11/06 20:43:32;;;;;;;7.22;3.40;;;;;;;7.90;57.41;100714.44;10388085;28;20059;-63
2021/11/06 20:48:35;;;;;;;8.07;3.70;;;;;;;7.86;57.51;100712.00;10386880;28;20041;-63
2021/11/06 20:53:37;;;;;;;9.80;3.90;;;;;;;7.68;57.83;100697.03;10385932;28;20489;-64
2021/11/06 20:58:40;;;;;;;8.90;3.60;;;;;;;7.62;57.69;100685.09;10386601;28;20494;-63
2021/11/06 21:03:41;;;;;;;7.00;3.30;;;;;;;7.61;57.69;100667.78;10386370;28;20049;-63
2021/11/06 21:08:51;;;;;;;7.40;3.15;;;;;;;7.52;57.81;100660.31;10386462;28;20069;-63
2021/11/06 21:18:59;;;;;;;5.18;3.00;;;;;;;7.46;57.85;100681.34;10384714;28;20125;-63
2021/11/06 21:24:03;;;;;;;6.63;3.20;;;;;;;7.43;58.04;100675.38;10367798;28;20060;-63
2021/11/06 21:29:05;;;;;;;8.30;3.15;;;;;;;7.52;57.77;100681.13;10385861;28;20437;-63
2021/11/06 21:34:07;;;;;;;5.85;3.20;;;;;;;7.51;57.76;100673.38;10385048;28;20672;-63
2021/11/06 21:39:19;;;;;;;6.60;3.10;;;;;;;7.64;57.71;100665.06;10372804;28;20056;-63
2021/11/06 21:44:21;;;;;;;6.60;3.25;;;;;;;7.64;57.52;100667.69;10384863;28;20049;-63
2021/11/06 21:49:24;;;;;;;5.95;2.92;;;;;;;7.65;57.44;100639.91;10385565;28;20045;-63
2021/11/06 21:54:27;;;;;;;5.97;2.83;;;;;;;7.75;57.12;100623.03;10385689;28;20111;-63
2021/11/06 21:59:29;;;;;;;7.45;3.20;;;;;;;7.74;57.47;100597.88;10385849;28;20049;-63
2021/11/06 22:04:33;;;;;;;6.72;3.28;;;;;;;7.69;57.44;100599.81;10385452;28;20064;-63
2021/11/06 22:09:35;;;;;;;6.80;2.95;;;;;;;7.61;57.58;100588.84;10384721;28;20494;-63
2021/11/06 22:14:38;;;;;;;9.05;3.00;;;;;;;7.61;57.45;100597.47;10385060;28;20140;-63
2021/11/06 22:19:45;;;;;;;6.07;3.10;;;;;;;7.57;57.39;100608.91;10398614;28;20050;-63
2021/11/06 22:24:49;;;;;;;5.85;2.92;;;;;;;7.54;57.67;100611.66;10382410;28;20049;-63
2021/11/06 22:29:51;;;;;;;7.35;3.03;;;;;;;7.51;57.71;100627.34;10383700;28;20045;-63
2021/11/06 22:34:53;;;;;;;8.63;3.22;;;;;;;7.54;57.73;100618.59;10397759;28;20049;-63
2021/11/06 22:39:55;;;;;;;7.30;3.28;;;;;;;7.62;57.53;100622.63;10383932;28;20775;-63
2021/11/06 22:44:56;;;;;;;7.82;3.58;;;;;;;7.64;57.18;100639.03;10383108;28;20057;-63
2021/11/06 22:49:59;;;;;;;6.53;2.97;;;;;;;7.72;56.90;100639.59;10383149;28;20053;-63
2021/11/06 22:55:00;;;;;;;6.40;2.55;;;;;;;7.56;57.09;100625.47;10382533;28;20083;-63
2021/11/06 23:00:15;;;;;;;4.82;2.90;;;;;;;7.59;56.49;100606.28;10382739;28;20053;-62
2021/11/06 23:05:23;;;;;;;6.28;2.90;;;;;;;7.61;56.84;100586.25;10382971;28;20124;-62
2021/11/06 23:10:26;;;;;;;7.00;2.50;;;;;;;7.63;56.31;100574.84;10381605;28;20050;-62
2021/11/06 23:15:32;;;;;;;5.15;2.42;;;;;;;7.58;56.26;100571.59;10382965;28;20057;-63
2021/11/06 23:20:35;;;;;;;4.85;2.35;;;;;;;7.52;55.85;100566.59;10382294;28;20041;-63